CSH1017 ZBAD-ZJSY
Flight info
| Callsign | CSH1017 |
|---|---|
| Flight time | N/A |
| Altitude | 34100 |
| Route | OMDEK W37 DUBAS R343 ENKUS W120 IVPUB W159 BHY W70 NYB G221 UPRIS |
| Aircraft | B789/H-SDE1E2E3FGHIJ2J3J4J5M1RWXY/LB1D1 |
Departure
| Time | 2026-04-17 12:37 |
|---|---|
| Airport | Beijing Daxing International Airport (ZBAD) |
Arrival
| Time | N/A |
|---|---|
| Airport | Sanya Phoenix International Airport (ZJSY) |
| Time | Latitude | Longitude | Altitude | Speed | Heading |
|---|---|---|---|---|---|
| 2026-04-17 12:00 | 39.50834 | 116.41820 | 96 ft | 0 kts | 270° |
| 2026-04-17 12:21 | 39.50834 | 116.41828 | 96 ft | 2 kts | 271° |
| 2026-04-17 12:21 | 39.50833 | 116.41847 | 96 ft | 2 kts | 286° |
| 2026-04-17 12:21 | 39.50827 | 116.41866 | 96 ft | 2 kts | 298° |
| 2026-04-17 12:22 | 39.50819 | 116.41882 | 96 ft | 2 kts | 311° |
| 2026-04-17 12:22 | 39.50809 | 116.41895 | 96 ft | 2 kts | 323° |
| 2026-04-17 12:22 | 39.50796 | 116.41906 | 96 ft | 2 kts | 336° |
| 2026-04-17 12:22 | 39.50782 | 116.41913 | 96 ft | 2 kts | 348° |
| 2026-04-17 12:23 | 39.50767 | 116.41915 | 96 ft | 2 kts | 0° |
| 2026-04-17 12:23 | 39.50762 | 116.41915 | 96 ft | 2 kts | 5° |
| 2026-04-17 12:23 | 39.50747 | 116.41912 | 96 ft | 2 kts | 17° |
| 2026-04-17 12:23 | 39.50738 | 116.41908 | 96 ft | 0 kts | 25° |
| 2026-04-17 12:24 | 39.50737 | 116.41907 | 96 ft | 0 kts | 25° |
| 2026-04-17 12:25 | 39.50738 | 116.41908 | 96 ft | 1 kts | 25° |
| 2026-04-17 12:26 | 39.50780 | 116.41934 | 96 ft | 11 kts | 32° |
| 2026-04-17 12:26 | 39.50822 | 116.42013 | 96 ft | 9 kts | 89° |
| 2026-04-17 12:26 | 39.50798 | 116.42086 | 96 ft | 8 kts | 133° |
| 2026-04-17 12:26 | 39.50747 | 116.42112 | 96 ft | 7 kts | 172° |
| 2026-04-17 12:27 | 39.50699 | 116.42120 | 96 ft | 6 kts | 172° |
| 2026-04-17 12:27 | 39.50647 | 116.42130 | 96 ft | 8 kts | 172° |
| 2026-04-17 12:27 | 39.50571 | 116.42143 | 96 ft | 13 kts | 172° |
| 2026-04-17 12:27 | 39.50478 | 116.42160 | 96 ft | 8 kts | 172° |
| 2026-04-17 12:28 | 39.50424 | 116.42169 | 96 ft | 7 kts | 172° |
| 2026-04-17 12:28 | 39.50376 | 116.42178 | 96 ft | 6 kts | 172° |
| 2026-04-17 12:28 | 39.50332 | 116.42186 | 96 ft | 6 kts | 172° |
| 2026-04-17 12:28 | 39.50293 | 116.42192 | 96 ft | 5 kts | 173° |
| 2026-04-17 12:29 | 39.50251 | 116.42199 | 96 ft | 9 kts | 173° |
| 2026-04-17 12:29 | 39.50207 | 116.42162 | 96 ft | 9 kts | 264° |
| 2026-04-17 12:29 | 39.50200 | 116.42082 | 96 ft | 8 kts | 264° |
| 2026-04-17 12:29 | 39.50192 | 116.42005 | 96 ft | 10 kts | 259° |
| 2026-04-17 12:30 | 39.50174 | 116.41869 | 96 ft | 19 kts | 262° |
| 2026-04-17 12:30 | 39.50156 | 116.41654 | 96 ft | 28 kts | 263° |
| 2026-04-17 12:30 | 39.50125 | 116.41368 | 96 ft | 36 kts | 263° |
| 2026-04-17 12:30 | 39.50095 | 116.41018 | 96 ft | 40 kts | 263° |
| 2026-04-17 12:31 | 39.50069 | 116.40725 | 96 ft | 27 kts | 263° |
| 2026-04-17 12:31 | 39.50045 | 116.40480 | 96 ft | 26 kts | 262° |
| 2026-04-17 12:31 | 39.50029 | 116.40320 | 96 ft | 15 kts | 262° |
| 2026-04-17 12:31 | 39.50014 | 116.40183 | 96 ft | 14 kts | 257° |
| 2026-04-17 12:32 | 39.49932 | 116.40132 | 96 ft | 13 kts | 174° |
| 2026-04-17 12:32 | 39.49802 | 116.40155 | 96 ft | 26 kts | 173° |
| 2026-04-17 12:32 | 39.49567 | 116.40192 | 96 ft | 38 kts | 173° |
| 2026-04-17 12:32 | 39.49305 | 116.40232 | 96 ft | 37 kts | 173° |
| 2026-04-17 12:33 | 39.49064 | 116.40269 | 96 ft | 22 kts | 173° |
| 2026-04-17 12:33 | 39.48977 | 116.40282 | 96 ft | 9 kts | 173° |
| 2026-04-17 12:33 | 39.48904 | 116.40294 | 96 ft | 8 kts | 173° |
| 2026-04-17 12:33 | 39.48845 | 116.40302 | 96 ft | 8 kts | 175° |
| 2026-04-17 12:34 | 39.48761 | 116.40314 | 96 ft | 15 kts | 171° |
| 2026-04-17 12:34 | 39.48639 | 116.40331 | 96 ft | 19 kts | 173° |
| 2026-04-17 12:34 | 39.48557 | 116.40341 | 96 ft | 9 kts | 185° |
| 2026-04-17 12:34 | 39.48515 | 116.40297 | 96 ft | 3 kts | 244° |
| 2026-04-17 12:35 | 39.48514 | 116.40294 | 96 ft | 0 kts | 246° |
| 2026-04-17 12:35 | 39.48504 | 116.40263 | 96 ft | 7 kts | 253° |
| 2026-04-17 12:35 | 39.48501 | 116.40175 | 96 ft | 11 kts | 283° |
| 2026-04-17 12:35 | 39.48544 | 116.40121 | 96 ft | 1 kts | 344° |
| 2026-04-17 12:37 | 39.52969 | 116.39401 | 938 ft | 184 kts | 351° |
| 2026-04-17 12:37 | 39.54220 | 116.39175 | 1295 ft | 187 kts | 352° |
| 2026-04-17 12:38 | 39.55582 | 116.38943 | 1782 ft | 214 kts | 352° |
| 2026-04-17 12:38 | 39.57032 | 116.38702 | 2242 ft | 238 kts | 352° |
| 2026-04-17 12:38 | 39.58740 | 116.38422 | 2573 ft | 258 kts | 352° |
| 2026-04-17 12:38 | 39.60393 | 116.38157 | 2928 ft | 259 kts | 352° |
| 2026-04-17 12:39 | 39.62276 | 116.37855 | 3375 ft | 260 kts | 352° |
| 2026-04-17 12:39 | 39.64091 | 116.37566 | 3804 ft | 261 kts | 352° |
| 2026-04-17 12:39 | 39.65842 | 116.37038 | 4206 ft | 262 kts | 330° |
| 2026-04-17 12:39 | 39.67047 | 116.35289 | 4687 ft | 263 kts | 291° |
| 2026-04-17 12:40 | 39.67200 | 116.32964 | 5157 ft | 267 kts | 256° |
| 2026-04-17 12:40 | 39.66251 | 116.30910 | 5632 ft | 271 kts | 221° |
| 2026-04-17 12:40 | 39.64507 | 116.29923 | 6122 ft | 276 kts | 188° |
| 2026-04-17 12:40 | 39.62606 | 116.29698 | 6583 ft | 279 kts | 186° |
| 2026-04-17 12:41 | 39.60677 | 116.29473 | 7007 ft | 280 kts | 186° |
| 2026-04-17 12:41 | 39.58738 | 116.29256 | 7433 ft | 281 kts | 186° |
| 2026-04-17 12:41 | 39.56760 | 116.29030 | 7865 ft | 282 kts | 187° |
| 2026-04-17 12:41 | 39.54842 | 116.28562 | 8280 ft | 282 kts | 197° |
| 2026-04-17 12:42 | 39.53011 | 116.27735 | 8703 ft | 282 kts | 203° |
| 2026-04-17 12:42 | 39.51188 | 116.26688 | 9136 ft | 282 kts | 207° |
| 2026-04-17 12:42 | 39.49440 | 116.25562 | 9559 ft | 283 kts | 208° |
| 2026-04-17 12:42 | 39.47691 | 116.24371 | 9986 ft | 284 kts | 209° |
| 2026-04-17 12:43 | 39.45952 | 116.23150 | 10413 ft | 285 kts | 210° |
| 2026-04-17 12:43 | 39.44197 | 116.21898 | 10861 ft | 299 kts | 210° |
| 2026-04-17 12:43 | 39.42331 | 116.20554 | 11321 ft | 310 kts | 210° |
| 2026-04-17 12:43 | 39.40456 | 116.19202 | 11752 ft | 316 kts | 210° |
| 2026-04-17 12:44 | 39.38517 | 116.17799 | 12195 ft | 326 kts | 210° |
| 2026-04-17 12:44 | 39.36482 | 116.16329 | 12653 ft | 338 kts | 210° |
| 2026-04-17 12:44 | 39.34434 | 116.14850 | 13081 ft | 340 kts | 211° |
| 2026-04-17 12:44 | 39.32370 | 116.13359 | 13506 ft | 341 kts | 211° |
| 2026-04-17 12:45 | 39.30293 | 116.11859 | 13934 ft | 341 kts | 211° |
| 2026-04-17 12:45 | 39.28222 | 116.10364 | 14360 ft | 342 kts | 211° |
| 2026-04-17 12:45 | 39.26127 | 116.08851 | 14804 ft | 355 kts | 211° |
| 2026-04-17 12:45 | 39.23906 | 116.07247 | 15265 ft | 373 kts | 211° |
| 2026-04-17 12:46 | 39.21595 | 116.05579 | 15718 ft | 388 kts | 211° |
| 2026-04-17 12:46 | 39.19208 | 116.03852 | 16155 ft | 392 kts | 213° |
| 2026-04-17 12:46 | 39.17172 | 116.01620 | 16511 ft | 388 kts | 232° |
| 2026-04-17 12:46 | 39.15627 | 115.98779 | 16968 ft | 387 kts | 238° |
| 2026-04-17 12:47 | 39.14228 | 115.95830 | 17386 ft | 388 kts | 240° |
| 2026-04-17 12:47 | 39.12892 | 115.92817 | 17810 ft | 388 kts | 241° |
| 2026-04-17 12:47 | 39.11566 | 115.89796 | 18232 ft | 389 kts | 242° |
| 2026-04-17 12:47 | 39.10216 | 115.86710 | 18662 ft | 390 kts | 242° |
| 2026-04-17 12:48 | 39.08890 | 115.83672 | 19085 ft | 393 kts | 242° |
| 2026-04-17 12:48 | 39.07543 | 115.80578 | 19526 ft | 406 kts | 242° |
| 2026-04-17 12:48 | 39.06136 | 115.77341 | 19972 ft | 419 kts | 242° |
| 2026-04-17 12:48 | 39.04686 | 115.74007 | 20416 ft | 432 kts | 242° |
| 2026-04-17 12:49 | 39.03192 | 115.70575 | 20858 ft | 444 kts | 242° |
| 2026-04-17 12:49 | 39.01665 | 115.67078 | 21295 ft | 456 kts | 243° |
| 2026-04-17 12:49 | 39.00081 | 115.63447 | 21735 ft | 467 kts | 243° |
| 2026-04-17 12:49 | 38.98476 | 115.59769 | 22179 ft | 478 kts | 243° |
| 2026-04-17 12:50 | 38.96862 | 115.56079 | 22862 ft | 483 kts | 244° |
| 2026-04-17 12:50 | 38.95195 | 115.52265 | 23545 ft | 487 kts | 244° |
| 2026-04-17 12:50 | 38.93698 | 115.48313 | 24030 ft | 487 kts | 250° |
| 2026-04-17 12:50 | 38.92312 | 115.44407 | 24436 ft | 487 kts | 249° |
| 2026-04-17 12:51 | 38.90910 | 115.40409 | 24851 ft | 485 kts | 250° |
| 2026-04-17 12:51 | 38.89526 | 115.36482 | 25258 ft | 484 kts | 250° |
| 2026-04-17 12:51 | 38.88135 | 115.32521 | 25678 ft | 484 kts | 249° |
| 2026-04-17 12:51 | 38.86745 | 115.28571 | 26108 ft | 481 kts | 249° |
| 2026-04-17 12:52 | 38.85370 | 115.24662 | 26533 ft | 477 kts | 249° |
| 2026-04-17 12:52 | 38.84025 | 115.20840 | 26953 ft | 474 kts | 249° |
| 2026-04-17 12:52 | 38.82661 | 115.16980 | 27378 ft | 471 kts | 249° |
| 2026-04-17 12:52 | 38.81327 | 115.13196 | 27799 ft | 466 kts | 249° |
| 2026-04-17 12:53 | 38.79994 | 115.09427 | 28221 ft | 463 kts | 249° |
| 2026-04-17 12:53 | 38.78659 | 115.05656 | 28646 ft | 459 kts | 249° |
| 2026-04-17 12:53 | 38.77335 | 115.01924 | 29069 ft | 456 kts | 248° |
| 2026-04-17 12:53 | 38.76027 | 114.98243 | 29489 ft | 453 kts | 248° |
| 2026-04-17 12:54 | 38.74733 | 114.94601 | 29907 ft | 450 kts | 248° |
| 2026-04-17 12:54 | 38.73441 | 114.90974 | 30325 ft | 447 kts | 248° |
| 2026-04-17 12:54 | 38.72150 | 114.87354 | 30743 ft | 444 kts | 248° |
| 2026-04-17 12:54 | 38.70870 | 114.83766 | 31160 ft | 442 kts | 248° |
| 2026-04-17 12:55 | 38.69611 | 114.80234 | 31572 ft | 439 kts | 248° |
| 2026-04-17 12:55 | 38.68333 | 114.76660 | 31990 ft | 436 kts | 248° |
| 2026-04-17 12:55 | 38.67084 | 114.73169 | 32400 ft | 433 kts | 248° |
| 2026-04-17 12:55 | 38.65821 | 114.69649 | 32815 ft | 430 kts | 248° |
| 2026-04-17 12:56 | 38.64579 | 114.66182 | 33224 ft | 428 kts | 248° |
| 2026-04-17 12:56 | 38.63338 | 114.62723 | 33637 ft | 425 kts | 248° |
| 2026-04-17 12:56 | 38.62121 | 114.59351 | 33974 ft | 423 kts | 248° |
| 2026-04-17 12:57 | 38.59643 | 114.52532 | 34000 ft | 421 kts | 248° |
| 2026-04-17 12:57 | 38.57180 | 114.45724 | 34002 ft | 420 kts | 248° |
| 2026-04-17 12:58 | 38.54725 | 114.38948 | 33998 ft | 420 kts | 248° |
| 2026-04-17 12:58 | 38.52291 | 114.32254 | 34017 ft | 421 kts | 247° |
| 2026-04-17 12:59 | 38.49814 | 114.25449 | 34015 ft | 421 kts | 248° |
| 2026-04-17 12:59 | 38.47351 | 114.18696 | 34015 ft | 421 kts | 247° |
| 2026-04-17 13:00 | 38.44881 | 114.11938 | 34011 ft | 420 kts | 247° |
| 2026-04-17 13:00 | 38.42406 | 114.05187 | 34013 ft | 421 kts | 247° |
| 2026-04-17 13:01 | 38.39908 | 113.98406 | 34011 ft | 421 kts | 246° |
| 2026-04-17 13:01 | 38.38117 | 113.95474 | 34001 ft | 435 kts | 226° |